sensor_id;sensor_type;location;lat;lon;timestamp;P1;durP1;ratioP1;P2;durP2;ratioP2
19905;SDS011;10115;50.906;4.438;2023-08-24T00:01:08;8.37;;;5.80;;
19905;SDS011;10115;50.906;4.438;2023-08-24T00:03:37;7.10;;;5.17;;
19905;SDS011;10115;50.906;4.438;2023-08-24T00:06:03;6.47;;;5.33;;
19905;SDS011;10115;50.906;4.438;2023-08-24T00:08:29;5.63;;;5.13;;
19905;SDS011;10115;50.906;4.438;2023-08-24T00:10:55;10.20;;;5.60;;
19905;SDS011;10115;50.906;4.438;2023-08-24T00:13:20;9.80;;;5.30;;
19905;SDS011;10115;50.906;4.438;2023-08-24T00:15:46;8.87;;;5.60;;
19905;SDS011;10115;50.906;4.438;2023-08-24T00:18:12;5.30;;;4.90;;
19905;SDS011;10115;50.906;4.438;2023-08-24T00:20:37;9.37;;;5.40;;
19905;SDS011;10115;50.906;4.438;2023-08-24T00:23:03;11.87;;;5.23;;
19905;SDS011;10115;50.906;4.438;2023-08-24T00:25:29;9.23;;;5.30;;
19905;SDS011;10115;50.906;4.438;2023-08-24T00:27:56;7.77;;;5.43;;
19905;SDS011;10115;50.906;4.438;2023-08-24T00:30:21;6.60;;;5.67;;
19905;SDS011;10115;50.906;4.438;2023-08-24T00:32:48;7.37;;;5.47;;
19905;SDS011;10115;50.906;4.438;2023-08-24T00:35:14;7.37;;;5.10;;
19905;SDS011;10115;50.906;4.438;2023-08-24T00:37:39;13.50;;;5.93;;
19905;SDS011;10115;50.906;4.438;2023-08-24T00:40:05;5.30;;;4.87;;
19905;SDS011;10115;50.906;4.438;2023-08-24T00:42:41;6.90;;;5.53;;
19905;SDS011;10115;50.906;4.438;2023-08-24T00:45:09;5.87;;;5.07;;
19905;SDS011;10115;50.906;4.438;2023-08-24T00:47:36;10.87;;;5.50;;
19905;SDS011;10115;50.906;4.438;2023-08-24T00:50:06;6.93;;;5.20;;
19905;SDS011;10115;50.906;4.438;2023-08-24T00:52:33;7.20;;;5.37;;
19905;SDS011;10115;50.906;4.438;2023-08-24T00:55:00;6.07;;;5.27;;
19905;SDS011;10115;50.906;4.438;2023-08-24T00:57:29;8.37;;;5.23;;
19905;SDS011;10115;50.906;4.438;2023-08-24T00:59:56;8.83;;;5.43;;
19905;SDS011;10115;50.906;4.438;2023-08-24T01:02:21;6.73;;;5.43;;
19905;SDS011;10115;50.906;4.438;2023-08-24T01:04:47;7.03;;;4.93;;
19905;SDS011;10115;50.906;4.438;2023-08-24T01:07:13;5.70;;;5.20;;
19905;SDS011;10115;50.906;4.438;2023-08-24T01:09:40;14.57;;;5.27;;
19905;SDS011;10115;50.906;4.438;2023-08-24T01:14:50;5.73;;;5.13;;
19905;SDS011;10115;50.906;4.438;2023-08-24T01:17:22;12.10;;;5.50;;
19905;SDS011;10115;50.906;4.438;2023-08-24T01:19:49;8.07;;;5.40;;
19905;SDS011;10115;50.906;4.438;2023-08-24T01:25:13;6.47;;;4.70;;
19905;SDS011;10115;50.906;4.438;2023-08-24T01:27:42;6.80;;;4.77;;
19905;SDS011;10115;50.906;4.438;2023-08-24T01:30:08;6.97;;;4.80;;
19905;SDS011;10115;50.906;4.438;2023-08-24T01:32:35;9.87;;;5.17;;
19905;SDS011;10115;50.906;4.438;2023-08-24T01:35:01;6.93;;;5.57;;
19905;SDS011;10115;50.906;4.438;2023-08-24T01:37:29;16.90;;;6.30;;
19905;SDS011;10115;50.906;4.438;2023-08-24T01:40:07;8.70;;;6.30;;
19905;SDS011;10115;50.906;4.438;2023-08-24T01:42:50;8.70;;;6.03;;
19905;SDS011;10115;50.906;4.438;2023-08-24T01:45:19;11.10;;;7.23;;
19905;SDS011;10115;50.906;4.438;2023-08-24T01:47:47;10.30;;;6.33;;
19905;SDS011;10115;50.906;4.438;2023-08-24T01:50:15;12.37;;;6.67;;
19905;SDS011;10115;50.906;4.438;2023-08-24T01:52:42;11.33;;;6.97;;
19905;SDS011;10115;50.906;4.438;2023-08-24T01:55:07;12.07;;;7.03;;
19905;SDS011;10115;50.906;4.438;2023-08-24T01:57:33;8.00;;;5.23;;
19905;SDS011;10115;50.906;4.438;2023-08-24T01:59:59;8.33;;;6.27;;
19905;SDS011;10115;50.906;4.438;2023-08-24T02:02:24;10.23;;;5.97;;
19905;SDS011;10115;50.906;4.438;2023-08-24T02:04:50;6.53;;;5.70;;
19905;SDS011;10115;50.906;4.438;2023-08-24T02:07:16;16.20;;;6.07;;
19905;SDS011;10115;50.906;4.438;2023-08-24T02:09:41;10.60;;;5.63;;
19905;SDS011;10115;50.906;4.438;2023-08-24T02:12:07;6.17;;;5.00;;
19905;SDS011;10115;50.906;4.438;2023-08-24T02:14:33;7.47;;;5.53;;
19905;SDS011;10115;50.906;4.438;2023-08-24T02:16:59;8.40;;;6.00;;
19905;SDS011;10115;50.906;4.438;2023-08-24T02:19:24;10.87;;;6.23;;
19905;SDS011;10115;50.906;4.438;2023-08-24T02:21:50;8.27;;;6.73;;
19905;SDS011;10115;50.906;4.438;2023-08-24T02:24:15;11.77;;;6.83;;
19905;SDS011;10115;50.906;4.438;2023-08-24T02:26:41;13.13;;;7.00;;
19905;SDS011;10115;50.906;4.438;2023-08-24T02:29:07;7.77;;;6.40;;
19905;SDS011;10115;50.906;4.438;2023-08-24T02:31:32;7.80;;;6.97;;
19905;SDS011;10115;50.906;4.438;2023-08-24T02:33:58;9.33;;;6.77;;
19905;SDS011;10115;50.906;4.438;2023-08-24T02:36:24;8.53;;;6.50;;
19905;SDS011;10115;50.906;4.438;2023-08-24T02:38:49;6.30;;;5.73;;
19905;SDS011;10115;50.906;4.438;2023-08-24T02:41:15;8.23;;;6.37;;
19905;SDS011;10115;50.906;4.438;2023-08-24T02:43:41;9.17;;;6.73;;
19905;SDS011;10115;50.906;4.438;2023-08-24T02:46:07;8.57;;;6.30;;
19905;SDS011;10115;50.906;4.438;2023-08-24T02:48:33;8.63;;;5.90;;
19905;SDS011;10115;50.906;4.438;2023-08-24T02:51:00;7.37;;;6.27;;
19905;SDS011;10115;50.906;4.438;2023-08-24T02:53:26;7.37;;;5.97;;
19905;SDS011;10115;50.906;4.438;2023-08-24T02:55:52;6.50;;;5.90;;
19905;SDS011;10115;50.906;4.438;2023-08-24T02:58:18;6.27;;;5.80;;
19905;SDS011;10115;50.906;4.438;2023-08-24T03:00:44;6.80;;;6.00;;
19905;SDS011;10115;50.906;4.438;2023-08-24T03:03:10;10.87;;;6.47;;
19905;SDS011;10115;50.906;4.438;2023-08-24T03:05:36;8.97;;;5.97;;
19905;SDS011;10115;50.906;4.438;2023-08-24T03:08:01;8.17;;;5.87;;
19905;SDS011;10115;50.906;4.438;2023-08-24T03:10:29;8.90;;;6.03;;
19905;SDS011;10115;50.906;4.438;2023-08-24T03:12:55;19.40;;;6.57;;
19905;SDS011;10115;50.906;4.438;2023-08-24T03:15:21;8.77;;;5.70;;
19905;SDS011;10115;50.906;4.438;2023-08-24T03:17:47;7.80;;;5.93;;
19905;SDS011;10115;50.906;4.438;2023-08-24T03:20:12;8.93;;;6.37;;
19905;SDS011;10115;50.906;4.438;2023-08-24T03:22:39;6.93;;;5.83;;
19905;SDS011;10115;50.906;4.438;2023-08-24T03:25:05;10.50;;;7.17;;
19905;SDS011;10115;50.906;4.438;2023-08-24T03:27:31;10.20;;;6.07;;
19905;SDS011;10115;50.906;4.438;2023-08-24T03:29:57;6.87;;;6.17;;
19905;SDS011;10115;50.906;4.438;2023-08-24T03:32:23;14.73;;;6.50;;
19905;SDS011;10115;50.906;4.438;2023-08-24T03:34:49;8.13;;;6.77;;
19905;SDS011;10115;50.906;4.438;2023-08-24T03:37:15;8.23;;;6.43;;
19905;SDS011;10115;50.906;4.438;2023-08-24T03:39:40;9.20;;;5.93;;
19905;SDS011;10115;50.906;4.438;2023-08-24T03:42:06;6.47;;;5.53;;
19905;SDS011;10115;50.906;4.438;2023-08-24T03:44:32;8.27;;;6.17;;
19905;SDS011;10115;50.906;4.438;2023-08-24T03:46:59;6.57;;;5.67;;
19905;SDS011;10115;50.906;4.438;2023-08-24T03:49:24;7.07;;;6.37;;
19905;SDS011;10115;50.906;4.438;2023-08-24T03:51:51;6.37;;;5.20;;
19905;SDS011;10115;50.906;4.438;2023-08-24T03:54:16;6.63;;;5.77;;
19905;SDS011;10115;50.906;4.438;2023-08-24T03:56:42;10.17;;;6.83;;
19905;SDS011;10115;50.906;4.438;2023-08-24T03:59:08;7.23;;;6.03;;
19905;SDS011;10115;50.906;4.438;2023-08-24T04:01:33;7.07;;;6.17;;
19905;SDS011;10115;50.906;4.438;2023-08-24T04:03:59;10.50;;;6.33;;
19905;SDS011;10115;50.906;4.438;2023-08-24T04:06:25;13.23;;;7.30;;
19905;SDS011;10115;50.906;4.438;2023-08-24T04:08:50;7.80;;;6.50;;
19905;SDS011;10115;50.906;4.438;2023-08-24T04:11:17;8.77;;;5.83;;
19905;SDS011;10115;50.906;4.438;2023-08-24T04:13:42;10.07;;;6.40;;
19905;SDS011;10115;50.906;4.438;2023-08-24T04:16:08;9.87;;;7.10;;
19905;SDS011;10115;50.906;4.438;2023-08-24T04:18:34;9.30;;;6.50;;
19905;SDS011;10115;50.906;4.438;2023-08-24T04:20:59;7.00;;;6.10;;
19905;SDS011;10115;50.906;4.438;2023-08-24T04:23:25;11.67;;;7.00;;
19905;SDS011;10115;50.906;4.438;2023-08-24T04:25:51;9.37;;;6.77;;
19905;SDS011;10115;50.906;4.438;2023-08-24T04:28:18;6.67;;;6.03;;
19905;SDS011;10115;50.906;4.438;2023-08-24T04:30:51;8.73;;;6.13;;
19905;SDS011;10115;50.906;4.438;2023-08-24T04:33:21;8.07;;;6.73;;
19905;SDS011;10115;50.906;4.438;2023-08-24T04:35:47;7.40;;;5.80;;
19905;SDS011;10115;50.906;4.438;2023-08-24T04:38:14;6.97;;;5.90;;
19905;SDS011;10115;50.906;4.438;2023-08-24T04:40:53;8.60;;;6.33;;
19905;SDS011;10115;50.906;4.438;2023-08-24T04:43:21;8.70;;;6.03;;
19905;SDS011;10115;50.906;4.438;2023-08-24T04:45:48;12.43;;;6.70;;
19905;SDS011;10115;50.906;4.438;2023-08-24T04:48:17;12.17;;;6.87;;
19905;SDS011;10115;50.906;4.438;2023-08-24T04:50:44;10.20;;;6.83;;
19905;SDS011;10115;50.906;4.438;2023-08-24T04:53:14;11.97;;;7.50;;
19905;SDS011;10115;50.906;4.438;2023-08-24T04:55:41;8.27;;;7.33;;
19905;SDS011;10115;50.906;4.438;2023-08-24T04:58:10;12.23;;;7.83;;
19905;SDS011;10115;50.906;4.438;2023-08-24T05:00:36;6.83;;;6.13;;
19905;SDS011;10115;50.906;4.438;2023-08-24T05:03:03;9.30;;;6.77;;
19905;SDS011;10115;50.906;4.438;2023-08-24T05:05:30;8.77;;;6.40;;
19905;SDS011;10115;50.906;4.438;2023-08-24T05:07:56;9.40;;;6.70;;
19905;SDS011;10115;50.906;4.438;2023-08-24T05:10:23;8.40;;;6.27;;
19905;SDS011;10115;50.906;4.438;2023-08-24T05:12:49;15.73;;;7.20;;
19905;SDS011;10115;50.906;4.438;2023-08-24T05:15:15;9.30;;;6.40;;
19905;SDS011;10115;50.906;4.438;2023-08-24T05:17:40;10.67;;;5.50;;
19905;SDS011;10115;50.906;4.438;2023-08-24T05:20:06;10.87;;;6.27;;
19905;SDS011;10115;50.906;4.438;2023-08-24T05:22:33;6.00;;;5.43;;
19905;SDS011;10115;50.906;4.438;2023-08-24T05:24:59;8.40;;;6.07;;
19905;SDS011;10115;50.906;4.438;2023-08-24T05:27:25;8.60;;;6.00;;
19905;SDS011;10115;50.906;4.438;2023-08-24T05:29:51;8.53;;;6.50;;
19905;SDS011;10115;50.906;4.438;2023-08-24T05:32:16;7.10;;;5.67;;
19905;SDS011;10115;50.906;4.438;2023-08-24T05:34:42;5.97;;;5.10;;
19905;SDS011;10115;50.906;4.438;2023-08-24T05:37:07;6.03;;;5.13;;
19905;SDS011;10115;50.906;4.438;2023-08-24T05:39:33;7.10;;;5.30;;
19905;SDS011;10115;50.906;4.438;2023-08-24T05:41:59;7.50;;;5.80;;
19905;SDS011;10115;50.906;4.438;2023-08-24T05:44:24;6.30;;;5.53;;
19905;SDS011;10115;50.906;4.438;2023-08-24T05:46:50;8.70;;;6.30;;
19905;SDS011;10115;50.906;4.438;2023-08-24T05:49:16;10.17;;;6.17;;
19905;SDS011;10115;50.906;4.438;2023-08-24T05:51:41;18.67;;;7.33;;
19905;SDS011;10115;50.906;4.438;2023-08-24T05:54:07;10.57;;;6.80;;
19905;SDS011;10115;50.906;4.438;2023-08-24T05:56:33;11.27;;;6.20;;
19905;SDS011;10115;50.906;4.438;2023-08-24T05:58:58;8.20;;;7.10;;
19905;SDS011;10115;50.906;4.438;2023-08-24T06:01:24;9.40;;;7.00;;
19905;SDS011;10115;50.906;4.438;2023-08-24T06:03:50;8.10;;;7.30;;
19905;SDS011;10115;50.906;4.438;2023-08-24T06:06:16;9.90;;;7.07;;
19905;SDS011;10115;50.906;4.438;2023-08-24T06:08:42;8.00;;;6.90;;
19905;SDS011;10115;50.906;4.438;2023-08-24T06:11:08;7.30;;;6.60;;
19905;SDS011;10115;50.906;4.438;2023-08-24T06:13:34;12.00;;;7.57;;
19905;SDS011;10115;50.906;4.438;2023-08-24T06:16:00;9.60;;;7.17;;
19905;SDS011;10115;50.906;4.438;2023-08-24T06:18:27;10.93;;;6.77;;
19905;SDS011;10115;50.906;4.438;2023-08-24T06:20:53;11.30;;;7.43;;
19905;SDS011;10115;50.906;4.438;2023-08-24T06:23:19;8.17;;;7.20;;
19905;SDS011;10115;50.906;4.438;2023-08-24T06:25:44;7.93;;;7.07;;
19905;SDS011;10115;50.906;4.438;2023-08-24T06:28:11;12.17;;;7.53;;
19905;SDS011;10115;50.906;4.438;2023-08-24T06:30:40;8.37;;;6.43;;
19905;SDS011;10115;50.906;4.438;2023-08-24T06:33:08;9.93;;;6.63;;
19905;SDS011;10115;50.906;4.438;2023-08-24T06:35:35;10.23;;;6.33;;
19905;SDS011;10115;50.906;4.438;2023-08-24T06:38:02;10.03;;;6.83;;
19905;SDS011;10115;50.906;4.438;2023-08-24T06:40:28;12.47;;;6.63;;
19905;SDS011;10115;50.906;4.438;2023-08-24T06:42:54;8.10;;;6.57;;
19905;SDS011;10115;50.906;4.438;2023-08-24T06:45:20;8.17;;;5.87;;
19905;SDS011;10115;50.906;4.438;2023-08-24T06:47:46;8.17;;;6.47;;
19905;SDS011;10115;50.906;4.438;2023-08-24T06:50:12;9.87;;;6.83;;
19905;SDS011;10115;50.906;4.438;2023-08-24T06:52:37;6.83;;;6.13;;
19905;SDS011;10115;50.906;4.438;2023-08-24T06:55:04;7.73;;;6.93;;
19905;SDS011;10115;50.906;4.438;2023-08-24T06:57:30;6.83;;;6.17;;
19905;SDS011;10115;50.906;4.438;2023-08-24T06:59:56;10.77;;;7.07;;
19905;SDS011;10115;50.906;4.438;2023-08-24T07:02:21;7.70;;;6.10;;
19905;SDS011;10115;50.906;4.438;2023-08-24T07:04:47;6.53;;;5.80;;
19905;SDS011;10115;50.906;4.438;2023-08-24T07:07:13;7.00;;;6.20;;
19905;SDS011;10115;50.906;4.438;2023-08-24T07:09:39;8.33;;;6.80;;
19905;SDS011;10115;50.906;4.438;2023-08-24T07:12:05;11.30;;;7.37;;
19905;SDS011;10115;50.906;4.438;2023-08-24T07:14:38;7.70;;;6.80;;
19905;SDS011;10115;50.906;4.438;2023-08-24T07:17:06;8.80;;;5.97;;
19905;SDS011;10115;50.906;4.438;2023-08-24T07:19:31;9.23;;;6.20;;
19905;SDS011;10115;50.906;4.438;2023-08-24T07:21:57;8.57;;;5.53;;
19905;SDS011;10115;50.906;4.438;2023-08-24T07:24:23;10.33;;;6.77;;
19905;SDS011;10115;50.906;4.438;2023-08-24T07:26:52;8.70;;;6.30;;
19905;SDS011;10115;50.906;4.438;2023-08-24T07:29:18;6.50;;;5.90;;
19905;SDS011;10115;50.906;4.438;2023-08-24T07:31:45;9.82;;;6.30;;
19905;SDS011;10115;50.906;4.438;2023-08-24T07:34:10;7.93;;;5.87;;
19905;SDS011;10115;50.906;4.438;2023-08-24T07:36:36;8.70;;;4.93;;
19905;SDS011;10115;50.906;4.438;2023-08-24T07:39:02;6.97;;;6.37;;
19905;SDS011;10115;50.906;4.438;2023-08-24T07:41:27;8.20;;;6.30;;
19905;SDS011;10115;50.906;4.438;2023-08-24T07:43:53;8.43;;;6.70;;
19905;SDS011;10115;50.906;4.438;2023-08-24T07:46:19;8.43;;;6.13;;
19905;SDS011;10115;50.906;4.438;2023-08-24T07:48:44;8.37;;;5.70;;
19905;SDS011;10115;50.906;4.438;2023-08-24T07:51:10;8.97;;;6.57;;
19905;SDS011;10115;50.906;4.438;2023-08-24T07:53:36;6.63;;;5.95;;
19905;SDS011;10115;50.906;4.438;2023-08-24T07:56:02;8.73;;;5.90;;
19905;SDS011;10115;50.906;4.438;2023-08-24T07:58:28;6.87;;;6.10;;
19905;SDS011;10115;50.906;4.438;2023-08-24T08:00:56;10.13;;;5.72;;
19905;SDS011;10115;50.906;4.438;2023-08-24T08:03:22;8.83;;;6.23;;
19905;SDS011;10115;50.906;4.438;2023-08-24T08:05:47;7.03;;;5.95;;
19905;SDS011;10115;50.906;4.438;2023-08-24T08:08:13;6.53;;;5.33;;
19905;SDS011;10115;50.906;4.438;2023-08-24T08:10:39;7.68;;;5.82;;
19905;SDS011;10115;50.906;4.438;2023-08-24T08:13:06;7.17;;;5.37;;
19905;SDS011;10115;50.906;4.438;2023-08-24T08:15:32;6.10;;;5.50;;
19905;SDS011;10115;50.906;4.438;2023-08-24T08:17:58;6.73;;;6.03;;
19905;SDS011;10115;50.906;4.438;2023-08-24T08:20:24;9.97;;;6.10;;
19905;SDS011;10115;50.906;4.438;2023-08-24T08:22:50;9.73;;;5.30;;
19905;SDS011;10115;50.906;4.438;2023-08-24T08:25:15;5.83;;;5.30;;
19905;SDS011;10115;50.906;4.438;2023-08-24T08:27:44;6.67;;;5.70;;
19905;SDS011;10115;50.906;4.438;2023-08-24T08:30:09;6.20;;;5.60;;
19905;SDS011;10115;50.906;4.438;2023-08-24T08:32:36;6.43;;;5.73;;
19905;SDS011;10115;50.906;4.438;2023-08-24T08:35:01;10.77;;;6.63;;
19905;SDS011;10115;50.906;4.438;2023-08-24T08:37:30;9.98;;;5.85;;
19905;SDS011;10115;50.906;4.438;2023-08-24T08:39:58;9.00;;;6.07;;
19905;SDS011;10115;50.906;4.438;2023-08-24T08:42:23;6.90;;;5.72;;
19905;SDS011;10115;50.906;4.438;2023-08-24T08:44:49;13.98;;;6.35;;
19905;SDS011;10115;50.906;4.438;2023-08-24T08:47:18;18.63;;;6.80;;
19905;SDS011;10115;50.906;4.438;2023-08-24T08:49:45;6.88;;;6.20;;
19905;SDS011;10115;50.906;4.438;2023-08-24T08:52:13;11.50;;;5.93;;
19905;SDS011;10115;50.906;4.438;2023-08-24T08:54:39;9.88;;;5.90;;
19905;SDS011;10115;50.906;4.438;2023-08-24T08:57:05;14.00;;;5.43;;
19905;SDS011;10115;50.906;4.438;2023-08-24T08:59:32;9.32;;;5.32;;
19905;SDS011;10115;50.906;4.438;2023-08-24T09:01:58;6.40;;;5.20;;
19905;SDS011;10115;50.906;4.438;2023-08-24T09:04:27;7.03;;;5.80;;
19905;SDS011;10115;50.906;4.438;2023-08-24T09:06:55;10.43;;;5.63;;
19905;SDS011;10115;50.906;4.438;2023-08-24T09:09:26;8.40;;;5.32;;
19905;SDS011;10115;50.906;4.438;2023-08-24T09:11:52;7.85;;;6.03;;
19905;SDS011;10115;50.906;4.438;2023-08-24T09:14:18;7.82;;;5.00;;
19905;SDS011;10115;50.906;4.438;2023-08-24T09:16:44;11.20;;;5.90;;
19905;SDS011;10115;50.906;4.438;2023-08-24T09:19:13;10.93;;;5.35;;
19905;SDS011;10115;50.906;4.438;2023-08-24T09:21:38;11.57;;;5.90;;
19905;SDS011;10115;50.906;4.438;2023-08-24T09:24:06;18.45;;;5.68;;
19905;SDS011;10115;50.906;4.438;2023-08-24T09:26:34;6.47;;;5.82;;
19905;SDS011;10115;50.906;4.438;2023-08-24T09:29:11;13.05;;;6.25;;
19905;SDS011;10115;50.906;4.438;2023-08-24T09:31:41;6.57;;;5.00;;
19905;SDS011;10115;50.906;4.438;2023-08-24T09:34:10;16.77;;;6.07;;
19905;SDS011;10115;50.906;4.438;2023-08-24T09:36:36;13.47;;;5.83;;
19905;SDS011;10115;50.906;4.438;2023-08-24T09:39:03;11.90;;;5.77;;
19905;SDS011;10115;50.906;4.438;2023-08-24T09:41:44;9.93;;;6.00;;
19905;SDS011;10115;50.906;4.438;2023-08-24T09:44:14;16.03;;;4.87;;
19905;SDS011;10115;50.906;4.438;2023-08-24T09:46:40;5.23;;;4.77;;
19905;SDS011;10115;50.906;4.438;2023-08-24T09:49:06;5.77;;;3.87;;
19905;SDS011;10115;50.906;4.438;2023-08-24T09:51:33;6.00;;;4.63;;
19905;SDS011;10115;50.906;4.438;2023-08-24T09:54:01;7.17;;;5.20;;
19905;SDS011;10115;50.906;4.438;2023-08-24T09:56:37;6.00;;;4.77;;
19905;SDS011;10115;50.906;4.438;2023-08-24T09:59:07;7.80;;;5.27;;
19905;SDS011;10115;50.906;4.438;2023-08-24T10:01:38;7.50;;;5.00;;
19905;SDS011;10115;50.906;4.438;2023-08-24T10:04:07;6.40;;;4.83;;
19905;SDS011;10115;50.906;4.438;2023-08-24T10:06:34;5.67;;;5.13;;
19905;SDS011;10115;50.906;4.438;2023-08-24T10:09:02;8.53;;;4.73;;
19905;SDS011;10115;50.906;4.438;2023-08-24T10:11:34;5.20;;;4.80;;
19905;SDS011;10115;50.906;4.438;2023-08-24T10:14:10;11.00;;;5.80;;
19905;SDS011;10115;50.906;4.438;2023-08-24T10:16:41;7.37;;;5.20;;
19905;SDS011;10115;50.906;4.438;2023-08-24T10:19:09;6.93;;;5.33;;
19905;SDS011;10115;50.906;4.438;2023-08-24T10:21:35;10.97;;;5.60;;
19905;SDS011;10115;50.906;4.438;2023-08-24T10:24:03;9.83;;;6.20;;
19905;SDS011;10115;50.906;4.438;2023-08-24T10:26:28;7.83;;;5.87;;
19905;SDS011;10115;50.906;4.438;2023-08-24T10:28:55;18.97;;;6.97;;
19905;SDS011;10115;50.906;4.438;2023-08-24T10:31:22;7.47;;;5.73;;
19905;SDS011;10115;50.906;4.438;2023-08-24T10:33:48;7.33;;;5.73;;
19905;SDS011;10115;50.906;4.438;2023-08-24T10:36:16;9.93;;;5.50;;
19905;SDS011;10115;50.906;4.438;2023-08-24T10:38:43;9.70;;;5.27;;
19905;SDS011;10115;50.906;4.438;2023-08-24T10:41:08;12.87;;;5.87;;
19905;SDS011;10115;50.906;4.438;2023-08-24T10:43:39;7.50;;;5.83;;
19905;SDS011;10115;50.906;4.438;2023-08-24T10:46:12;5.03;;;4.63;;
19905;SDS011;10115;50.906;4.438;2023-08-24T10:53:59;10.50;;;6.03;;
19905;SDS011;10115;50.906;4.438;2023-08-24T10:56:34;7.00;;;6.10;;
19905;SDS011;10115;50.906;4.438;2023-08-24T10:59:11;5.63;;;5.03;;
19905;SDS011;10115;50.906;4.438;2023-08-24T11:01:39;4.50;;;4.10;;
19905;SDS011;10115;50.906;4.438;2023-08-24T11:04:06;9.37;;;5.50;;
19905;SDS011;10115;50.906;4.438;2023-08-24T11:06:33;9.80;;;6.00;;
19905;SDS011;10115;50.906;4.438;2023-08-24T11:09:08;8.07;;;5.00;;
19905;SDS011;10115;50.906;4.438;2023-08-24T11:11:42;5.50;;;5.00;;
19905;SDS011;10115;50.906;4.438;2023-08-24T11:14:20;4.90;;;4.40;;
19905;SDS011;10115;50.906;4.438;2023-08-24T11:16:50;6.70;;;5.30;;
19905;SDS011;10115;50.906;4.438;2023-08-24T11:19:17;7.33;;;5.83;;
19905;SDS011;10115;50.906;4.438;2023-08-24T11:21:44;4.57;;;4.17;;
19905;SDS011;10115;50.906;4.438;2023-08-24T11:24:14;5.60;;;5.10;;
19905;SDS011;10115;50.906;4.438;2023-08-24T11:26:44;5.77;;;5.27;;
19905;SDS011;10115;50.906;4.438;2023-08-24T11:29:11;6.30;;;5.40;;
19905;SDS011;10115;50.906;4.438;2023-08-24T11:31:38;8.00;;;6.00;;
19905;SDS011;10115;50.906;4.438;2023-08-24T11:34:04;5.17;;;4.63;;
19905;SDS011;10115;50.906;4.438;2023-08-24T11:36:33;9.25;;;5.30;;
19905;SDS011;10115;50.906;4.438;2023-08-24T11:39:14;5.00;;;4.53;;
19905;SDS011;10115;50.906;4.438;2023-08-24T11:41:42;5.93;;;5.13;;
19905;SDS011;10115;50.906;4.438;2023-08-24T11:44:09;8.67;;;5.43;;
19905;SDS011;10115;50.906;4.438;2023-08-24T11:46:35;6.20;;;4.87;;
19905;SDS011;10115;50.906;4.438;2023-08-24T11:49:04;5.80;;;5.20;;
19905;SDS011;10115;50.906;4.438;2023-08-24T11:51:31;4.63;;;4.33;;
19905;SDS011;10115;50.906;4.438;2023-08-24T11:53:59;6.53;;;5.17;;
19905;SDS011;10115;50.906;4.438;2023-08-24T11:56:25;5.37;;;4.73;;
19905;SDS011;10115;50.906;4.438;2023-08-24T11:58:50;5.40;;;4.63;;
19905;SDS011;10115;50.906;4.438;2023-08-24T12:01:16;6.67;;;4.63;;
19905;SDS011;10115;50.906;4.438;2023-08-24T12:03:42;5.07;;;4.67;;
19905;SDS011;10115;50.906;4.438;2023-08-24T12:06:14;4.77;;;4.37;;
19905;SDS011;10115;50.906;4.438;2023-08-24T12:08:45;9.07;;;5.03;;
19905;SDS011;10115;50.906;4.438;2023-08-24T12:13:42;5.00;;;4.37;;
19905;SDS011;10115;50.906;4.438;2023-08-24T12:16:18;7.00;;;4.57;;
19905;SDS011;10115;50.906;4.438;2023-08-24T12:18:51;7.73;;;5.07;;
19905;SDS011;10115;50.906;4.438;2023-08-24T12:21:18;7.40;;;5.00;;
19905;SDS011;10115;50.906;4.438;2023-08-24T12:23:54;4.90;;;4.40;;
19905;SDS011;10115;50.906;4.438;2023-08-24T12:26:21;4.90;;;4.50;;
19905;SDS011;10115;50.906;4.438;2023-08-24T12:28:50;9.03;;;5.03;;
19905;SDS011;10115;50.906;4.438;2023-08-24T12:31:17;5.47;;;4.87;;
19905;SDS011;10115;50.906;4.438;2023-08-24T12:33:44;4.80;;;4.43;;
19905;SDS011;10115;50.906;4.438;2023-08-24T12:36:10;6.83;;;4.80;;
19905;SDS011;10115;50.906;4.438;2023-08-24T12:38:36;6.27;;;4.90;;
19905;SDS011;10115;50.906;4.438;2023-08-24T12:41:02;7.13;;;4.83;;
19905;SDS011;10115;50.906;4.438;2023-08-24T12:43:27;5.13;;;4.47;;
19905;SDS011;10115;50.906;4.438;2023-08-24T12:45:53;5.23;;;4.27;;
19905;SDS011;10115;50.906;4.438;2023-08-24T12:48:19;5.13;;;4.73;;
19905;SDS011;10115;50.906;4.438;2023-08-24T12:50:44;4.80;;;4.40;;
19905;SDS011;10115;50.906;4.438;2023-08-24T12:53:10;16.13;;;4.73;;
19905;SDS011;10115;50.906;4.438;2023-08-24T12:55:38;5.07;;;4.17;;
19905;SDS011;10115;50.906;4.438;2023-08-24T12:58:05;3.40;;;3.20;;
19905;SDS011;10115;50.906;4.438;2023-08-24T13:00:31;6.27;;;4.23;;
19905;SDS011;10115;50.906;4.438;2023-08-24T13:02:57;4.70;;;3.77;;
19905;SDS011;10115;50.906;4.438;2023-08-24T13:05:22;3.80;;;3.50;;
19905;SDS011;10115;50.906;4.438;2023-08-24T13:07:48;3.80;;;3.50;;
19905;SDS011;10115;50.906;4.438;2023-08-24T13:10:14;5.33;;;4.07;;
19905;SDS011;10115;50.906;4.438;2023-08-24T13:12:39;3.50;;;3.30;;
19905;SDS011;10115;50.906;4.438;2023-08-24T13:15:05;7.80;;;4.00;;
19905;SDS011;10115;50.906;4.438;2023-08-24T13:17:31;3.90;;;3.60;;
19905;SDS011;10115;50.906;4.438;2023-08-24T13:19:57;5.47;;;4.43;;
19905;SDS011;10115;50.906;4.438;2023-08-24T13:22:23;3.97;;;3.67;;
19905;SDS011;10115;50.906;4.438;2023-08-24T13:24:49;8.03;;;3.80;;
19905;SDS011;10115;50.906;4.438;2023-08-24T13:27:14;4.43;;;4.07;;
19905;SDS011;10115;50.906;4.438;2023-08-24T13:29:40;4.03;;;3.67;;
19905;SDS011;10115;50.906;4.438;2023-08-24T13:32:06;5.47;;;4.20;;
19905;SDS011;10115;50.906;4.438;2023-08-24T13:34:32;4.27;;;3.87;;
19905;SDS011;10115;50.906;4.438;2023-08-24T13:36:58;3.80;;;3.43;;
19905;SDS011;10115;50.906;4.438;2023-08-24T13:39:27;6.57;;;4.37;;
19905;SDS011;10115;50.906;4.438;2023-08-24T13:41:53;3.10;;;2.90;;
19905;SDS011;10115;50.906;4.438;2023-08-24T13:44:19;4.20;;;3.57;;
19905;SDS011;10115;50.906;4.438;2023-08-24T13:46:45;8.10;;;3.43;;
19905;SDS011;10115;50.906;4.438;2023-08-24T13:49:11;6.60;;;3.30;;
19905;SDS011;10115;50.906;4.438;2023-08-24T13:51:37;6.93;;;4.10;;
19905;SDS011;10115;50.906;4.438;2023-08-24T13:54:11;3.90;;;3.60;;
19905;SDS011;10115;50.906;4.438;2023-08-24T13:56:46;3.00;;;2.80;;
19905;SDS011;10115;50.906;4.438;2023-08-24T13:59:13;3.67;;;3.30;;
19905;SDS011;10115;50.906;4.438;2023-08-24T14:01:39;5.80;;;3.30;;
19905;SDS011;10115;50.906;4.438;2023-08-24T14:04:05;3.93;;;3.63;;
19905;SDS011;10115;50.906;4.438;2023-08-24T14:06:31;6.03;;;3.77;;
19905;SDS011;10115;50.906;4.438;2023-08-24T14:08:59;3.53;;;3.33;;
19905;SDS011;10115;50.906;4.438;2023-08-24T14:11:27;3.67;;;3.37;;
19905;SDS011;10115;50.906;4.438;2023-08-24T14:13:53;4.00;;;3.50;;
19905;SDS011;10115;50.906;4.438;2023-08-24T14:16:19;3.60;;;3.30;;
19905;SDS011;10115;50.906;4.438;2023-08-24T14:18:45;3.67;;;3.40;;
19905;SDS011;10115;50.906;4.438;2023-08-24T14:21:11;4.27;;;3.17;;
19905;SDS011;10115;50.906;4.438;2023-08-24T14:23:37;6.50;;;3.63;;
19905;SDS011;10115;50.906;4.438;2023-08-24T14:26:03;4.20;;;3.37;;
19905;SDS011;10115;50.906;4.438;2023-08-24T14:28:50;6.03;;;3.37;;
19905;SDS011;10115;50.906;4.438;2023-08-24T14:31:16;3.23;;;3.03;;
19905;SDS011;10115;50.906;4.438;2023-08-24T14:33:42;4.97;;;4.07;;
19905;SDS011;10115;50.906;4.438;2023-08-24T14:36:09;3.03;;;2.80;;
19905;SDS011;10115;50.906;4.438;2023-08-24T14:38:37;6.03;;;2.97;;
19905;SDS011;10115;50.906;4.438;2023-08-24T14:41:04;6.07;;;3.40;;
19905;SDS011;10115;50.906;4.438;2023-08-24T14:43:30;4.50;;;3.10;;
19905;SDS011;10115;50.906;4.438;2023-08-24T14:45:56;3.37;;;3.17;;
19905;SDS011;10115;50.906;4.438;2023-08-24T14:48:21;3.70;;;3.40;;
19905;SDS011;10115;50.906;4.438;2023-08-24T14:50:47;3.17;;;2.87;;
19905;SDS011;10115;50.906;4.438;2023-08-24T14:53:13;6.33;;;3.27;;
19905;SDS011;10115;50.906;4.438;2023-08-24T14:55:39;6.73;;;3.40;;
19905;SDS011;10115;50.906;4.438;2023-08-24T14:58:05;3.13;;;2.93;;